Time;durP1;ratioP1;P1;durP2;ratioP2;P2;SDS_P1;SDS_P2;PMS_P1;PMS_P2;Temp;Humidity;BMP_temperature;BMP_pressure;BME280_temperature;BME280_humidity;BME280_pressure;Samples;Min_cycle;Max_cycle;Signal;HPM_P1;HPM_P2
2023/03/05 00:16:25;;;;;;;;;;;;;;;;;;;;;
2023/03/05 00:31:47;;;;;;;0.10;0.10;;;;;;;3.28;59.29;101344.25;6349208;22;20134;-81
2023/03/05 00:34:31;;;;;;;;;;;;;;;;;;;;;
2023/03/05 00:36:57;;;;;;;0.00;0.00;;;;;;;3.37;59.58;101359.28;6345671;22;20037;-81
2023/03/05 00:39:42;;;;;;;0.00;0.00;;;;;;;3.49;59.38;101378.53;6318162;22;20077;-77
2023/03/05 00:42:08;;;;;;;0.00;0.00;;;;;;;3.38;58.71;101365.53;6311972;22;20022;-80
2023/03/05 00:44:42;;;;;;;0.00;0.00;;;;;;;3.39;59.42;101362.66;6319582;22;20011;-78
2023/03/05 00:47:10;;;;;;;0.00;0.00;;;;;;;3.29;59.56;101346.75;6316750;22;20131;-79
2023/03/05 00:49:36;;;;;;;0.00;0.00;;;;;;;3.49;59.19;101387.47;6318695;22;20022;-79
2023/03/05 00:52:09;;;;;;;0.00;0.00;;;;;;;3.34;59.29;101353.44;6317371;22;20040;-78
2023/03/05 00:57:41;;;;;;;0.00;0.00;;;;;;;3.30;59.45;101353.84;6332298;22;20025;-78
2023/03/05 01:00:07;;;;;;;0.00;0.00;;;;;;;3.38;59.67;101373.66;6354291;22;20036;-78
2023/03/05 01:02:42;;;;;;;0.00;0.00;;;;;;;3.35;59.15;101363.25;6356134;22;20015;-81
2023/03/05 01:05:11;;;;;;;0.00;0.00;;;;;;;3.24;59.65;101349.22;6321396;22;20006;-74
2023/03/05 01:07:36;;;;;;;0.00;0.00;;;;;;;3.36;59.89;101354.06;6318237;22;20002;-77
2023/03/05 01:10:12;;;;;;;0.00;0.00;;;;;;;3.44;59.08;101345.81;6265967;22;20029;-75
2023/03/05 01:12:41;;;;;;;0.00;0.00;;;;;;;3.49;59.54;101340.69;6317864;22;20030;-78
2023/03/05 01:15:13;;;;;;;0.00;0.00;;;;;;;3.62;58.84;101351.59;6315590;22;19998;-77
2023/03/05 01:17:40;;;;;;;0.00;0.00;;;;;;;3.61;59.13;101341.78;6293001;22;20002;-77
2023/03/05 01:20:11;;;;;;;0.00;0.00;;;;;;;3.62;59.20;101335.38;6314563;22;20002;-77
2023/03/05 01:22:49;;;;;;;0.00;0.00;;;;;;;3.60;59.24;101326.59;6318550;22;20086;-78
2023/03/05 01:25:18;;;;;;;0.00;0.00;;;;;;;3.63;58.69;101334.31;6315186;22;19999;-77
2023/03/05 01:27:43;;;;;;;0.00;0.00;;;;;;;3.71;58.51;101340.59;6315377;22;20014;-77
2023/03/05 01:30:14;;;;;;;0.00;0.00;;;;;;;3.72;58.31;101336.88;6313709;22;20010;-77
2023/03/05 01:32:40;;;;;;;0.00;0.00;;;;;;;3.65;58.95;101323.28;6316198;22;20007;-77
2023/03/05 01:35:07;;;;;;;0.00;0.00;;;;;;;3.66;58.85;101320.41;6292547;22;20022;-78
2023/03/05 01:37:33;;;;;;;0.00;0.00;;;;;;;3.70;58.70;101320.00;6338569;22;20002;-75
2023/03/05 01:39:58;;;;;;;0.00;0.00;;;;;;;3.64;58.22;101317.06;6315749;22;20029;-77
2023/03/05 01:42:24;;;;;;;0.00;0.00;;;;;;;3.69;58.78;101318.34;6288560;22;20106;-77
2023/03/05 01:45:12;;;;;;;0.00;0.00;;;;;;;3.57;58.53;101296.41;6345022;22;20014;-77
2023/03/05 01:47:41;;;;;;;0.00;0.00;;;;;;;3.54;58.35;101289.53;6310992;22;20014;-75
2023/03/05 01:50:10;;;;;;;0.00;0.00;;;;;;;3.59;58.36;101297.91;6319016;22;20002;-75
2023/03/05 01:52:39;;;;;;;0.00;0.00;;;;;;;3.57;58.26;101294.53;6313483;22;20026;-76
2023/03/05 01:55:11;;;;;;;0.00;0.00;;;;;;;3.42;58.54;101269.50;6344253;22;20006;-77
2023/03/05 01:57:42;;;;;;;0.00;0.00;;;;;;;3.47;58.14;101288.66;6312742;22;20003;-76
2023/03/05 02:00:34;;;;;;;0.10;0.10;;;;;;;3.43;58.45;101271.13;6317644;22;20434;-80
2023/03/05 02:03:06;;;;;;;0.00;0.00;;;;;;;3.35;58.32;101257.78;6309509;22;20035;-75
2023/03/05 02:05:42;;;;;;;0.00;0.00;;;;;;;3.49;58.46;101281.19;6315801;22;20005;-75
2023/03/05 02:08:14;;;;;;;0.00;0.00;;;;;;;3.46;58.33;101281.56;6316431;22;19999;-77
2023/03/05 02:10:43;;;;;;;0.00;0.00;;;;;;;3.38;58.09;101274.44;6318199;22;19994;-76
2023/03/05 02:13:13;;;;;;;0.00;0.00;;;;;;;3.36;58.35;101264.84;6346606;22;19995;-76
2023/03/05 02:15:41;;;;;;;0.00;0.00;;;;;;;3.27;58.25;101248.81;6319498;22;20003;-77
2023/03/05 02:18:08;;;;;;;0.00;0.00;;;;;;;3.44;58.10;101267.41;6315615;22;20002;-76
2023/03/05 02:20:48;;;;;;;0.10;0.10;;;;;;;3.45;58.36;101269.09;6311990;22;20258;-74
2023/03/05 02:23:16;;;;;;;0.10;0.10;;;;;;;3.40;58.74;101255.31;6316401;22;20104;-76
2023/03/05 02:25:44;;;;;;;0.00;0.00;;;;;;;3.28;58.85;101228.81;6318396;22;20377;-76
2023/03/05 02:28:21;;;;;;;0.10;0.10;;;;;;;3.38;58.81;101241.16;6316608;22;20042;-76
2023/03/05 02:30:52;;;;;;;0.00;0.00;;;;;;;3.28;59.16;101231.53;6312285;22;20029;-79
2023/03/05 02:33:18;;;;;;;0.00;0.00;;;;;;;3.29;58.87;101227.81;6281366;22;20064;-78
2023/03/05 02:35:47;;;;;;;0.00;0.00;;;;;;;3.37;59.20;101234.09;6311856;22;19987;-76
2023/03/05 02:38:22;;;;;;;0.00;0.00;;;;;;;3.38;58.94;101236.59;6284229;22;20016;-77
2023/03/05 02:40:47;;;;;;;0.00;0.00;;;;;;;3.43;59.50;101233.28;6308935;22;20025;-76
2023/03/05 02:43:15;;;;;;;0.00;0.00;;;;;;;3.30;58.87;101213.25;6284519;22;19995;-77
2023/03/05 02:45:50;;;;;;;0.00;0.00;;;;;;;3.42;59.61;101237.03;6284113;22;20035;-77
2023/03/05 02:48:18;;;;;;;0.00;0.00;;;;;;;3.25;58.98;101210.28;6288667;22;20007;-77
2023/03/05 02:50:45;;;;;;;0.00;0.00;;;;;;;3.25;59.29;101204.88;6306631;22;20023;-76
2023/03/05 02:53:10;;;;;;;0.00;0.00;;;;;;;3.29;59.05;101206.16;6316039;22;20006;-76
2023/03/05 02:55:36;;;;;;;0.00;0.00;;;;;;;3.31;58.94;101214.94;6310235;22;20430;-76
2023/03/05 02:58:25;;;;;;;0.00;0.00;;;;;;;3.31;59.32;101220.34;6294035;22;20088;-78
2023/03/05 03:00:52;;;;;;;0.00;0.00;;;;;;;3.32;58.84;101216.59;6307741;22;20094;-77
2023/03/05 03:03:18;;;;;;;0.00;0.00;;;;;;;3.29;59.16;101205.34;6261544;22;20003;-76
2023/03/05 03:05:43;;;;;;;0.00;0.00;;;;;;;3.21;59.00;101198.22;6304975;22;20418;-77
2023/03/05 03:08:09;;;;;;;0.00;0.00;;;;;;;3.13;58.77;101184.88;6284578;22;20014;-77
2023/03/05 03:10:43;;;;;;;0.00;0.00;;;;;;;3.12;59.09;101183.19;6284213;22;19987;-76
2023/03/05 03:13:09;;;;;;;0.00;0.00;;;;;;;3.16;59.30;101195.28;6310601;22;20031;-80
2023/03/05 03:15:36;;;;;;;0.00;0.00;;;;;;;3.05;59.16;101179.59;6307815;22;20007;-77
2023/03/05 03:18:05;;;;;;;0.00;0.00;;;;;;;3.01;59.71;101176.47;6302815;22;20071;-77
2023/03/05 03:20:31;;;;;;;0.00;0.00;;;;;;;2.96;59.87;101168.97;6306591;22;20007;-77
2023/03/05 03:22:57;;;;;;;0.00;0.00;;;;;;;2.94;59.88;101171.00;6254900;22;20671;-78
2023/03/05 03:25:22;;;;;;;0.00;0.00;;;;;;;2.85;59.92;101149.75;6309749;22;20014;-78
2023/03/05 03:27:48;;;;;;;0.00;0.00;;;;;;;3.08;60.06;101181.91;6283163;22;20094;-78
2023/03/05 03:30:17;;;;;;;0.00;0.00;;;;;;;3.00;60.32;101163.16;6283340;22;20010;-77
2023/03/05 03:32:43;;;;;;;0.00;0.00;;;;;;;2.93;60.22;101150.41;6314115;22;20060;-76
2023/03/05 03:35:09;;;;;;;0.00;0.00;;;;;;;2.92;59.76;101143.38;6311869;22;20019;-77
2023/03/05 03:37:46;;;;;;;0.00;0.00;;;;;;;3.00;60.06;101142.38;6323270;22;19999;-76
2023/03/05 03:40:14;;;;;;;0.00;0.00;;;;;;;3.00;60.29;101142.38;6290214;22;20007;-77
2023/03/05 03:42:40;;;;;;;0.00;0.00;;;;;;;3.14;60.14;101170.31;6318394;22;20025;-78
2023/03/05 03:45:06;;;;;;;0.00;0.00;;;;;;;3.00;60.51;101146.94;6313381;22;20058;-77
2023/03/05 03:47:33;;;;;;;0.00;0.00;;;;;;;2.96;60.46;101141.94;6287609;22;20010;-78
2023/03/05 03:50:01;;;;;;;0.00;0.00;;;;;;;2.96;59.71;101152.75;6312880;22;20014;-79
2023/03/05 03:52:29;;;;;;;0.00;0.00;;;;;;;2.86;60.28;101141.47;6312788;22;20060;-78
2023/03/05 03:55:00;;;;;;;0.00;0.00;;;;;;;2.81;60.47;101138.50;6263070;22;20011;-77
2023/03/05 03:57:39;;;;;;;0.00;0.00;;;;;;;2.85;60.31;101150.59;6312835;22;20060;-77
2023/03/05 04:00:09;;;;;;;0.00;0.00;;;;;;;2.69;60.48;101134.69;6315295;22;20088;-78
2023/03/05 04:02:34;;;;;;;0.00;0.00;;;;;;;2.69;61.11;101134.69;6314836;22;20441;-79
2023/03/05 04:05:00;;;;;;;0.00;0.00;;;;;;;2.67;60.63;101125.94;6289778;22;20013;-77
2023/03/05 04:07:31;;;;;;;0.00;0.00;;;;;;;2.61;60.80;101112.19;6259892;22;20533;-77
2023/03/05 04:09:57;;;;;;;0.00;0.00;;;;;;;2.83;61.10;101133.72;6316371;22;20003;-77
2023/03/05 04:12:22;;;;;;;0.00;0.00;;;;;;;2.84;61.17;101132.72;6286501;22;20053;-77
2023/03/05 04:14:48;;;;;;;0.00;0.00;;;;;;;2.82;61.22;101129.38;6315178;22;20032;-76
2023/03/05 04:17:23;;;;;;;0.10;0.10;;;;;;;2.74;60.45;101110.63;6311233;22;20087;-77
2023/03/05 04:19:48;;;;;;;0.00;0.00;;;;;;;2.74;60.62;101106.03;6316198;22;20046;-77
2023/03/05 04:22:17;;;;;;;0.00;0.00;;;;;;;2.81;60.70;101106.09;6316752;22;20003;-75
2023/03/05 04:24:46;;;;;;;0.10;0.10;;;;;;;2.90;60.78;101121.09;6311790;22;20006;-78
2023/03/05 04:27:14;;;;;;;0.00;0.00;;;;;;;2.74;61.15;101089.00;6339915;22;20006;-77
2023/03/05 04:29:39;;;;;;;0.10;0.10;;;;;;;2.76;61.14;101090.47;6310937;22;20016;-77
2023/03/05 04:32:05;;;;;;;0.00;0.00;;;;;;;2.76;60.76;101093.19;6319466;22;20019;-77
2023/03/05 04:34:31;;;;;;;0.00;0.00;;;;;;;2.76;61.02;101092.34;6260525;22;20012;-76
2023/03/05 04:36:57;;;;;;;0.00;0.00;;;;;;;2.82;60.75;101094.25;6308572;22;20007;-77
2023/03/05 04:39:22;;;;;;;0.10;0.10;;;;;;;2.88;60.76;101098.88;6286179;22;20109;-76
2023/03/05 04:41:48;;;;;;;0.00;0.00;;;;;;;2.84;60.58;101091.38;6307465;22;19999;-77
2023/03/05 04:44:26;;;;;;;;;;;;;;;;;;;;;
2023/03/05 04:46:52;;;;;;;0.08;0.08;;;;;;;2.90;60.69;101095.97;6284252;22;20030;-78
2023/03/05 04:49:18;;;;;;;0.00;0.00;;;;;;;2.99;60.50;101099.34;6234145;22;20007;-76
2023/03/05 04:51:43;;;;;;;0.00;0.00;;;;;;;2.97;60.86;101094.97;6231482;22;20011;-77
2023/03/05 04:54:09;;;;;;;0.00;0.00;;;;;;;3.01;60.91;101099.97;6258693;22;20013;-76
2023/03/05 04:56:37;;;;;;;0.00;0.00;;;;;;;2.86;61.03;101079.34;6287148;22;20007;-76
2023/03/05 04:59:02;;;;;;;0.00;0.00;;;;;;;2.85;61.02;101077.66;6256566;22;20025;-77
2023/03/05 05:01:31;;;;;;;0.00;0.00;;;;;;;3.01;60.69;101097.25;6237962;22;19999;-77
2023/03/05 05:03:57;;;;;;;0.00;0.00;;;;;;;2.97;60.58;101081.44;6256958;22;20143;-77
2023/03/05 05:06:22;;;;;;;0.00;0.00;;;;;;;2.93;60.20;101079.34;6261303;22;20011;-76
2023/03/05 05:08:48;;;;;;;0.05;0.05;;;;;;;2.94;60.18;101078.34;6231575;22;20006;-76
2023/03/05 05:11:14;;;;;;;0.00;0.00;;;;;;;2.82;59.98;101056.44;6260296;22;20063;-76
2023/03/05 05:13:39;;;;;;;0.10;0.10;;;;;;;2.93;60.36;101071.25;6287654;22;20066;-76
2023/03/05 05:16:06;;;;;;;0.00;0.00;;;;;;;2.87;59.98;101053.97;6255799;22;20002;-77
2023/03/05 05:18:34;;;;;;;0.00;0.00;;;;;;;2.92;59.85;101056.06;6260163;22;20114;-75
2023/03/05 05:20:59;;;;;;;0.00;0.00;;;;;;;2.95;60.03;101059.22;6279122;22;20092;-75
2023/03/05 05:23:25;;;;;;;0.10;0.10;;;;;;;2.91;59.26;101046.31;6282324;22;20499;-75
2023/03/05 05:26:00;;;;;;;0.00;0.00;;;;;;;2.95;59.46;101051.09;6285198;22;20011;-76
2023/03/05 05:28:37;;;;;;;0.00;0.00;;;;;;;2.77;59.19;101021.09;6281379;22;20007;-75
2023/03/05 05:31:43;;;;;;;;;;;;;;;;;;;;;
2023/03/05 05:34:09;;;;;;;0.00;0.00;;;;;;;2.92;59.32;101054.22;6311154;22;20014;-77
2023/03/05 05:36:34;;;;;;;0.00;0.00;;;;;;;2.85;59.46;101047.09;6255975;22;20004;-77
2023/03/05 05:39:00;;;;;;;0.10;0.10;;;;;;;2.83;59.23;101044.59;6257842;22;20461;-73
2023/03/05 05:41:25;;;;;;;0.00;0.00;;;;;;;2.76;59.36;101032.91;6280373;22;20003;-76
2023/03/05 05:43:51;;;;;;;0.10;0.10;;;;;;;2.77;59.59;101034.59;6284315;22;20342;-75
2023/03/05 05:46:23;;;;;;;0.00;0.00;;;;;;;2.79;59.36;101043.34;6310799;22;20003;-77
2023/03/05 05:48:52;;;;;;;0.00;0.00;;;;;;;2.85;59.90;101042.53;6307696;22;20321;-76
2023/03/05 05:51:20;;;;;;;0.10;0.10;;;;;;;2.78;59.92;101036.25;6309979;22;19999;-77
2023/03/05 05:53:46;;;;;;;0.00;0.00;;;;;;;2.83;59.95;101041.88;6308668;22;20015;-76
2023/03/05 05:57:02;;;;;;;;;;;;;;;;;;;;;
2023/03/05 05:59:28;;;;;;;0.00;0.00;;;;;;;2.69;59.36;101010.47;6309682;22;20030;-76
2023/03/05 06:01:58;;;;;;;0.10;0.10;;;;;;;2.57;59.43;100997.50;6307838;22;19999;-76
2023/03/05 06:04:23;;;;;;;0.00;0.00;;;;;;;2.64;59.90;101007.50;6310801;22;20141;-76
2023/03/05 06:06:51;;;;;;;0.00;0.00;;;;;;;2.65;59.93;101003.78;6311480;22;20022;-77
2023/03/05 06:09:26;;;;;;;0.10;0.10;;;;;;;2.72;59.60;101023.56;6284273;22;20003;-76
2023/03/05 06:12:14;;;;;;;0.00;0.00;;;;;;;2.61;60.41;101009.59;6314274;22;20007;-75
2023/03/05 06:14:42;;;;;;;0.00;0.00;;;;;;;2.79;59.65;101037.94;6313811;22;20033;-76
2023/03/05 06:17:08;;;;;;;0.00;0.00;;;;;;;2.73;59.65;101017.09;6317631;22;20003;-76
2023/03/05 06:19:33;;;;;;;0.10;0.10;;;;;;;2.79;59.77;101033.38;6311352;22;20034;-76
2023/03/05 06:21:59;;;;;;;0.00;0.00;;;;;;;2.82;60.27;101042.94;6284901;22;20004;-76
2023/03/05 06:24:27;;;;;;;0.00;0.00;;;;;;;2.65;60.22;101009.19;6256488;22;20015;-77
2023/03/05 06:26:55;;;;;;;0.00;0.00;;;;;;;2.75;60.38;101020.47;6286822;22;20010;-76
2023/03/05 06:29:23;;;;;;;0.00;0.00;;;;;;;2.67;59.87;101001.72;6307485;22;20008;-79
2023/03/05 06:31:48;;;;;;;0.00;0.00;;;;;;;2.78;59.87;101014.66;6310918;22;20018;-76
2023/03/05 06:34:16;;;;;;;0.00;0.00;;;;;;;2.66;60.01;100981.13;6287413;22;20011;-76
2023/03/05 06:36:47;;;;;;;0.00;0.00;;;;;;;2.87;60.01;101021.53;6282630;22;20003;-77
2023/03/05 06:39:15;;;;;;;0.00;0.00;;;;;;;2.73;60.02;100984.69;6312765;22;20006;-77
2023/03/05 06:41:40;;;;;;;0.00;0.00;;;;;;;2.78;59.62;100998.44;6308790;22;20105;-77
2023/03/05 06:44:06;;;;;;;0.00;0.00;;;;;;;2.81;59.68;100995.34;6314968;22;20003;-76
2023/03/05 06:46:34;;;;;;;0.08;0.08;;;;;;;2.79;60.46;100983.91;6341478;22;20052;-77
2023/03/05 06:49:04;;;;;;;0.00;0.00;;;;;;;2.89;59.82;100997.88;6314458;22;20014;-77
2023/03/05 06:51:32;;;;;;;0.00;0.00;;;;;;;2.94;60.44;101008.91;6286500;22;20034;-77
2023/03/05 06:54:08;;;;;;;0.00;0.00;;;;;;;2.89;60.08;100988.94;6337160;22;20038;-77
2023/03/05 06:56:38;;;;;;;0.00;0.00;;;;;;;2.96;60.17;101006.84;6313169;22;20251;-77
2023/03/05 06:59:07;;;;;;;0.00;0.00;;;;;;;2.96;60.34;101001.44;6311196;22;20007;-77
2023/03/05 07:01:36;;;;;;;0.00;0.00;;;;;;;2.94;59.61;100997.28;6314793;22;20006;-78
2023/03/05 07:04:02;;;;;;;0.00;0.00;;;;;;;3.06;59.87;101011.03;6313426;22;20017;-76
2023/03/05 07:06:48;;;;;;;0.00;0.00;;;;;;;2.82;60.39;100964.59;6266129;22;20421;-77
2023/03/05 07:09:16;;;;;;;0.00;0.00;;;;;;;2.87;60.01;100964.00;6316827;22;20054;-77
2023/03/05 07:11:41;;;;;;;0.00;0.00;;;;;;;2.88;60.03;100961.09;6319995;22;20019;-79
2023/03/05 07:14:07;;;;;;;0.00;0.00;;;;;;;3.00;60.12;100971.31;6314843;22;20010;-78
2023/03/05 07:16:34;;;;;;;0.00;0.00;;;;;;;3.07;60.05;100983.81;6320796;22;20037;-81
2023/03/05 07:19:03;;;;;;;0.00;0.00;;;;;;;2.94;60.31;100968.38;6292591;22;20051;-79
2023/03/05 07:21:31;;;;;;;0.00;0.00;;;;;;;3.04;60.19;100980.66;6317378;22;20429;-80
2023/03/05 07:23:59;;;;;;;0.00;0.00;;;;;;;3.08;60.54;100981.94;6318998;22;20010;-80
2023/03/05 07:26:25;;;;;;;0.00;0.00;;;;;;;3.16;60.33;100986.34;6321572;22;20011;-79
2023/03/05 07:28:59;;;;;;;0.00;0.00;;;;;;;3.20;60.58;100991.13;6324664;22;20010;-81
2023/03/05 07:31:29;;;;;;;0.00;0.00;;;;;;;3.16;60.15;100979.06;6335724;22;20019;-81
2023/03/05 07:33:56;;;;;;;0.10;0.10;;;;;;;3.25;59.74;100971.59;6289834;22;20010;-80
2023/03/05 07:36:22;;;;;;;0.00;0.00;;;;;;;3.36;60.57;100983.66;6288484;22;20022;-81
2023/03/05 07:39:28;;;;;;;0.00;0.00;;;;;;;3.29;60.57;100970.97;6265204;22;20007;-80
2023/03/05 07:41:53;;;;;;;0.00;0.00;;;;;;;3.34;59.91;100964.94;6312256;22;20090;-82
2023/03/05 07:44:21;;;;;;;0.00;0.00;;;;;;;3.22;60.13;100945.81;6264134;22;20010;-81
2023/03/05 07:47:07;;;;;;;;;;;;;;;;;;;;;
2023/03/05 07:49:34;;;;;;;0.00;0.00;;;;;;;3.29;60.21;100957.47;6319057;22;20075;-80
2023/03/05 07:51:59;;;;;;;0.00;0.00;;;;;;;3.51;60.53;100992.44;6241697;22;20011;-78
2023/03/05 07:54:25;;;;;;;0.00;0.00;;;;;;;3.36;60.00;100957.50;6295919;22;19992;-80
2023/03/05 07:57:01;;;;;;;0.00;0.00;;;;;;;3.52;59.88;100982.47;6278059;22;19992;-80
2023/03/05 07:59:26;;;;;;;0.00;0.00;;;;;;;3.45;59.92;100977.06;6270273;22;20026;-81
2023/03/05 08:02:01;;;;;;;0.00;0.00;;;;;;;3.33;60.03;100957.91;6294063;22;19999;-82
2023/03/05 08:04:30;;;;;;;0.00;0.00;;;;;;;3.44;60.53;100975.38;6293444;22;20011;-79
2023/03/05 08:06:57;;;;;;;0.00;0.00;;;;;;;3.51;60.53;100992.44;6285386;22;20007;-77
2023/03/05 08:09:22;;;;;;;0.00;0.00;;;;;;;3.48;60.16;100992.88;6282342;22;20014;-79
2023/03/05 08:11:48;;;;;;;0.00;0.00;;;;;;;3.42;60.27;100974.75;6258723;22;20008;-78
2023/03/05 08:14:14;;;;;;;0.00;0.00;;;;;;;3.43;60.38;100979.13;6282344;22;20180;-78
2023/03/05 09:11:03;;;;;;;;;;;;;;;;;;;;;
2023/03/05 09:13:49;;;;;;;;;;;;;;;;;;;;;
2023/03/05 09:20:00;;;;;;;0.00;0.00;;;;;;;3.72;59.06;100950.84;6203566;23;20035;-82
2023/03/05 09:22:25;;;;;;;0.00;0.00;;;;;;;3.67;58.64;100932.53;6252919;22;20008;-81
2023/03/05 09:24:51;;;;;;;0.00;0.00;;;;;;;3.75;58.43;100919.84;6301815;22;20023;-82
2023/03/05 09:27:29;;;;;;;;;;;;;;;;;;;;;
2023/03/05 09:29:57;;;;;;;0.00;0.00;;;;;;;3.96;58.26;100946.69;6288289;22;20030;-82
2023/03/05 09:32:53;;;;;;;;;;;;;;;;;;;;;
2023/03/05 09:38:43;;;;;;;0.00;0.00;;;;;;;3.97;56.84;100901.50;6342868;22;20007;-82
2023/03/05 09:41:34;;;;;;;;;;;;;;;;;;;;;
2023/03/05 09:44:28;;;;;;;0.00;0.00;;;;;;;3.96;57.35;100897.16;6349971;22;20034;-83
2023/03/05 09:47:09;;;;;;;0.00;0.00;;;;;;;4.19;57.02;100940.00;6324672;22;20019;-84
2023/03/05 09:50:11;;;;;;;0.00;0.00;;;;;;;4.22;56.91;100933.31;6321313;22;20020;-81
2023/03/05 09:53:09;;;;;;;0.00;0.00;;;;;;;4.15;56.98;100911.69;6316353;22;20010;-80
2023/03/05 09:55:41;;;;;;;0.00;0.00;;;;;;;4.36;56.84;100926.84;6252710;22;20003;-80
2023/03/05 09:58:13;;;;;;;0.00;0.00;;;;;;;4.28;56.51;100908.09;6342525;22;19998;-77
2023/03/05 10:00:46;;;;;;;0.00;0.00;;;;;;;4.27;56.24;100893.75;6335521;22;20010;-78
2023/03/05 10:03:24;;;;;;;0.10;0.10;;;;;;;4.39;55.77;100887.69;6315666;22;20006;-82
2023/03/05 10:06:11;;;;;;;0.00;0.00;;;;;;;4.74;56.47;100906.28;6341644;22;20059;-83
2023/03/05 10:09:10;;;;;;;0.00;0.00;;;;;;;5.04;55.49;100882.97;6343416;22;19999;-79
2023/03/05 10:11:41;;;;;;;0.00;0.00;;;;;;;5.81;54.15;100879.28;6318562;22;20015;-83
2023/03/05 10:14:20;;;;;;;0.00;0.00;;;;;;;6.74;52.46;100880.13;6315995;22;20102;-83
2023/03/05 10:17:00;;;;;;;0.00;0.00;;;;;;;7.42;51.34;100880.81;6346354;22;20014;-83
2023/03/05 10:19:28;;;;;;;0.00;0.00;;;;;;;7.78;50.79;100868.09;6315615;22;20076;-82
2023/03/05 10:22:09;;;;;;;0.00;0.00;;;;;;;8.30;51.03;100855.59;6317983;22;20075;-81
2023/03/05 10:24:55;;;;;;;0.00;0.00;;;;;;;9.67;49.92;100854.84;6316250;22;20003;-80
2023/03/05 10:27:52;;;;;;;0.10;0.10;;;;;;;11.96;47.44;100837.63;6316882;22;20007;-81
2023/03/05 10:30:40;;;;;;;0.00;0.00;;;;;;;14.37;39.77;100833.47;6288258;22;20902;-82
2023/03/05 10:33:05;;;;;;;0.00;0.00;;;;;;;15.77;35.17;100856.22;6339589;22;20014;-83
2023/03/05 10:35:47;;;;;;;0.00;0.00;;;;;;;16.58;33.46;100836.28;6316183;22;20007;-82
2023/03/05 10:38:31;;;;;;;0.00;0.00;;;;;;;17.69;33.10;100841.53;6339964;22;20332;-81
2023/03/05 10:41:03;;;;;;;0.00;0.00;;;;;;;18.69;33.09;100842.91;6318648;22;20070;-80
2023/03/05 10:43:44;;;;;;;0.00;0.00;;;;;;;19.68;32.42;100843.88;6315492;22;20002;-80
2023/03/05 10:46:17;;;;;;;0.00;0.00;;;;;;;19.94;30.05;100834.88;6313722;22;20007;-81
2023/03/05 10:48:49;;;;;;;0.00;0.00;;;;;;;18.79;28.67;100831.59;6317955;22;20014;-81
2023/03/05 10:51:24;;;;;;;0.00;0.00;;;;;;;17.59;29.33;100810.16;6339963;22;20022;-80
2023/03/05 10:54:11;;;;;;;0.00;0.00;;;;;;;17.27;30.29;100819.28;6317644;22;20003;-81
2023/03/05 10:56:39;;;;;;;0.00;0.00;;;;;;;17.41;31.27;100803.56;6316981;22;19999;-81
2023/03/05 10:59:07;;;;;;;0.00;0.00;;;;;;;18.44;28.95;100817.41;6292968;22;20114;-80
2023/03/05 11:01:35;;;;;;;0.00;0.00;;;;;;;19.17;29.80;100811.88;6291849;22;20029;-80
2023/03/05 11:04:06;;;;;;;0.00;0.00;;;;;;;19.91;29.95;100802.22;6292627;22;20021;-81
2023/03/05 11:06:38;;;;;;;0.00;0.00;;;;;;;20.54;27.86;100802.88;6317077;22;20006;-81
2023/03/05 11:09:31;;;;;;;0.00;0.00;;;;;;;20.17;26.63;100798.75;6319721;22;20006;-81
2023/03/05 11:12:07;;;;;;;0.00;0.00;;;;;;;19.80;25.68;100801.69;6320211;22;20011;-81
2023/03/05 11:14:37;;;;;;;0.00;0.00;;;;;;;18.96;26.61;100770.81;6316353;22;20003;-81
2023/03/05 11:17:26;;;;;;;0.00;0.00;;;;;;;19.39;27.31;100788.91;6322663;22;20006;-79
2023/03/05 11:20:05;;;;;;;;;;;;;;;;;;;;;
2023/03/05 11:22:36;;;;;;;0.00;0.00;;;;;;;19.42;27.61;100770.78;6358816;22;20030;-79
2023/03/05 11:25:27;;;;;;;;;;;;;;;;;;;;;
2023/03/05 11:28:00;;;;;;;0.00;0.00;;;;;;;21.67;27.08;100769.78;6319214;22;20383;-81
2023/03/05 11:30:35;;;;;;;0.00;0.00;;;;;;;22.82;24.22;100774.38;6344690;22;20112;-81
2023/03/05 11:33:10;;;;;;;0.00;0.00;;;;;;;23.32;24.31;100775.44;6342655;22;20322;-80
2023/03/05 11:35:38;;;;;;;0.00;0.00;;;;;;;23.64;24.39;100768.19;6311305;22;20014;-81
2023/03/05 11:38:13;;;;;;;0.00;0.00;;;;;;;23.43;23.54;100767.44;6343451;22;20007;-82
2023/03/05 11:40:39;;;;;;;0.00;0.00;;;;;;;22.96;21.90;100751.81;6344192;22;20362;-82
2023/03/05 11:43:08;;;;;;;0.00;0.00;;;;;;;22.25;22.68;100748.72;6317755;22;20034;-81
2023/03/05 11:45:34;;;;;;;0.00;0.00;;;;;;;22.76;24.26;100751.47;6265365;22;20580;-82
2023/03/05 11:48:08;;;;;;;0.00;0.00;;;;;;;23.60;23.71;100750.50;6293644;22;20014;-82
2023/03/05 11:51:01;;;;;;;0.00;0.00;;;;;;;24.55;22.11;100708.41;6314892;22;20505;-83
2023/03/05 11:53:35;;;;;;;0.00;0.00;;;;;;;24.73;22.32;100725.72;6309554;22;20029;-83
2023/03/05 11:56:20;;;;;;;0.00;0.00;;;;;;;24.21;20.91;100727.38;6342855;22;20015;-82
2023/03/05 11:59:12;;;;;;;0.00;0.00;;;;;;;23.57;22.05;100722.44;6341639;22;20002;-82
2023/03/05 12:01:51;;;;;;;0.00;0.00;;;;;;;22.99;21.08;100726.03;6346468;22;20009;-83
2023/03/05 12:04:19;;;;;;;0.00;0.00;;;;;;;22.14;21.79;100689.81;6346689;22;20029;-83
2023/03/05 12:06:58;;;;;;;0.00;0.00;;;;;;;23.47;21.95;100721.75;6318995;22;20009;-82
2023/03/05 12:09:45;;;;;;;0.00;0.00;;;;;;;24.07;20.75;100687.00;6320751;22;20325;-82
2023/03/05 12:12:41;;;;;;;0.00;0.00;;;;;;;24.32;20.71;100715.69;6314684;22;20393;-83
2023/03/05 12:15:16;;;;;;;0.00;0.00;;;;;;;26.08;20.28;100691.63;6318605;22;20498;-82
2023/03/05 12:18:11;;;;;;;0.00;0.00;;;;;;;25.52;19.88;100699.09;6312993;22;20018;-82
2023/03/05 12:20:57;;;;;;;0.00;0.00;;;;;;;24.39;19.71;100696.34;6296777;22;19999;-82
2023/03/05 12:23:25;;;;;;;0.00;0.00;;;;;;;22.90;20.59;100686.28;6317180;22;19998;-82
2023/03/05 12:25:59;;;;;;;0.00;0.00;;;;;;;21.39;21.90;100682.00;6291871;22;20016;-82
2023/03/05 12:28:34;;;;;;;0.00;0.00;;;;;;;20.99;23.33;100673.13;6316087;22;19991;-83
2023/03/05 12:31:04;;;;;;;0.00;0.00;;;;;;;21.26;23.49;100655.19;6318673;22;19987;-82
2023/03/05 12:33:42;;;;;;;0.00;0.00;;;;;;;19.71;23.27;100664.84;6314646;22;20011;-83
2023/03/05 12:36:40;;;;;;;0.00;0.00;;;;;;;18.26;25.43;100662.19;6343228;22;20354;-83
2023/03/05 12:39:46;;;;;;;0.00;0.00;;;;;;;17.21;26.84;100646.41;6295013;22;20018;-81
2023/03/05 12:42:28;;;;;;;0.00;0.00;;;;;;;16.55;27.04;100643.66;6303389;22;20011;-82
2023/03/05 12:45:13;;;;;;;0.00;0.00;;;;;;;16.46;27.70;100635.22;6316471;22;19998;-81
2023/03/05 12:48:00;;;;;;;0.00;0.00;;;;;;;16.37;28.28;100614.97;6318505;22;20062;-82
2023/03/05 12:50:26;;;;;;;0.00;0.00;;;;;;;16.33;28.17;100633.25;6315066;22;20448;-82
2023/03/05 12:53:11;;;;;;;0.00;0.00;;;;;;;15.47;28.87;100610.09;6318788;22;20006;-81
2023/03/05 12:55:57;;;;;;;0.00;0.00;;;;;;;15.21;29.71;100608.78;6316336;22;20003;-80
2023/03/05 12:58:35;;;;;;;0.00;0.00;;;;;;;14.49;30.40;100613.00;6319551;22;19998;-81
2023/03/05 13:01:15;;;;;;;0.00;0.00;;;;;;;13.94;31.53;100602.97;6319327;22;20005;-82
2023/03/05 13:03:49;;;;;;;0.00;0.00;;;;;;;13.44;32.27;100578.19;6342878;22;20041;-82
2023/03/05 13:06:33;;;;;;;0.00;0.00;;;;;;;12.85;33.41;100570.66;6317303;22;20018;-82
2023/03/05 13:09:14;;;;;;;0.00;0.00;;;;;;;12.70;33.77;100586.06;6314467;22;20099;-82
2023/03/05 13:11:43;;;;;;;0.00;0.00;;;;;;;12.84;33.53;100580.00;6316414;22;20266;-83
2023/03/05 13:14:39;;;;;;;0.00;0.00;;;;;;;12.88;33.68;100586.59;6313743;22;20970;-83
2023/03/05 13:17:28;;;;;;;0.00;0.00;;;;;;;12.66;34.61;100568.50;6319520;22;19991;-82
2023/03/05 13:19:54;;;;;;;0.00;0.00;;;;;;;12.28;34.57;100557.03;6318972;22;19979;-82
2023/03/05 13:22:29;;;;;;;0.00;0.00;;;;;;;11.91;35.32;100547.06;6319433;22;20035;-83
2023/03/05 13:25:19;;;;;;;0.00;0.00;;;;;;;12.18;35.11;100554.28;6316881;22;20066;-83
2023/03/05 13:28:11;;;;;;;0.00;0.00;;;;;;;11.80;36.06;100539.97;6349195;22;20007;-83
2023/03/05 13:30:59;;;;;;;0.00;0.00;;;;;;;11.59;36.49;100534.41;6349128;22;20433;-82
2023/03/05 13:33:37;;;;;;;0.00;0.00;;;;;;;11.31;36.42;100511.06;6318027;22;20056;-81
2023/03/05 13:36:04;;;;;;;0.00;0.00;;;;;;;10.82;37.35;100525.91;6318703;22;20064;-81
2023/03/05 13:38:39;;;;;;;0.00;0.00;;;;;;;10.45;38.20;100529.50;6292787;22;20034;-81
2023/03/05 13:41:18;;;;;;;0.00;0.00;;;;;;;10.20;39.15;100536.38;6347845;22;20003;-82
2023/03/05 13:43:48;;;;;;;0.00;0.00;;;;;;;9.94;39.97;100535.34;6318891;22;20303;-82
2023/03/05 13:46:43;;;;;;;0.00;0.00;;;;;;;9.96;40.23;100498.47;6320583;22;20007;-82
2023/03/05 13:49:24;;;;;;;0.00;0.00;;;;;;;10.53;39.96;100512.59;6322685;22;20003;-83